sensor_id;sensor_type;location;lat;lon;timestamp;pressure;altitude;pressure_sealevel;temperature;humidity
36386;BME280;24125;47.482;8.770;2023-02-19T00:01:19;97018.84;;;11.06;63.61
36386;BME280;24125;47.482;8.770;2023-02-19T00:03:54;97007.38;;;11.05;63.34
36386;BME280;24125;47.482;8.770;2023-02-19T00:06:30;97004.22;;;11.03;63.18
36386;BME280;24125;47.482;8.770;2023-02-19T00:09:04;97013.03;;;11.04;63.33
36386;BME280;24125;47.482;8.770;2023-02-19T00:11:37;97002.94;;;11.01;63.50
36386;BME280;24125;47.482;8.770;2023-02-19T00:14:14;97004.53;;;11.02;63.39
36386;BME280;24125;47.482;8.770;2023-02-19T00:16:48;96997.59;;;11.01;63.71
36386;BME280;24125;47.482;8.770;2023-02-19T00:19:21;96996.66;;;10.96;63.40
36386;BME280;24125;47.482;8.770;2023-02-19T00:21:54;96997.75;;;10.95;63.22
36386;BME280;24125;47.482;8.770;2023-02-19T00:24:27;97002.59;;;10.93;63.39
36386;BME280;24125;47.482;8.770;2023-02-19T00:27:00;96998.34;;;10.92;63.12
36386;BME280;24125;47.482;8.770;2023-02-19T00:29:33;96999.75;;;10.90;63.68
36386;BME280;24125;47.482;8.770;2023-02-19T00:32:08;97001.31;;;10.91;63.52
36386;BME280;24125;47.482;8.770;2023-02-19T00:34:41;97000.06;;;10.88;63.42
36386;BME280;24125;47.482;8.770;2023-02-19T00:37:14;96998.19;;;10.89;63.35
36386;BME280;24125;47.482;8.770;2023-02-19T00:39:47;96998.00;;;10.85;63.51
36386;BME280;24125;47.482;8.770;2023-02-19T00:42:20;96999.28;;;10.88;63.30
36386;BME280;24125;47.482;8.770;2023-02-19T00:44:53;96999.28;;;10.88;63.74
36386;BME280;24125;47.482;8.770;2023-02-19T00:47:27;96992.06;;;10.88;63.56
36386;BME280;24125;47.482;8.770;2023-02-19T00:50:01;96988.59;;;10.88;63.33
36386;BME280;24125;47.482;8.770;2023-02-19T00:52:34;96980.09;;;10.86;63.47
36386;BME280;24125;47.482;8.770;2023-02-19T00:55:07;96988.91;;;10.86;63.22
36386;BME280;24125;47.482;8.770;2023-02-19T00:57:40;96991.06;;;10.84;63.49
36386;BME280;24125;47.482;8.770;2023-02-19T01:00:13;96987.63;;;10.84;63.61
36386;BME280;24125;47.482;8.770;2023-02-19T01:02:47;96992.97;;;10.84;63.71
36386;BME280;24125;47.482;8.770;2023-02-19T01:05:20;96992.16;;;10.83;63.44
36386;BME280;24125;47.482;8.770;2023-02-19T01:07:53;96990.59;;;10.82;63.42
36386;BME280;24125;47.482;8.770;2023-02-19T01:10:26;96979.91;;;10.82;63.77
36386;BME280;24125;47.482;8.770;2023-02-19T01:12:59;96981.78;;;10.82;63.57
36386;BME280;24125;47.482;8.770;2023-02-19T01:15:32;96976.94;;;10.84;63.70
36386;BME280;24125;47.482;8.770;2023-02-19T01:18:07;96981.19;;;10.85;63.78
36386;BME280;24125;47.482;8.770;2023-02-19T01:20:41;96980.09;;;10.86;63.80
36386;BME280;24125;47.482;8.770;2023-02-19T01:23:15;96971.59;;;10.84;63.57
36386;BME280;24125;47.482;8.770;2023-02-19T01:25:48;96971.09;;;10.82;63.64
36386;BME280;24125;47.482;8.770;2023-02-19T01:28:21;96972.22;;;10.81;63.25
36386;BME280;24125;47.482;8.770;2023-02-19T01:30:54;96977.88;;;10.79;63.45
36386;BME280;24125;47.482;8.770;2023-02-19T01:33:28;96974.09;;;10.80;63.47
36386;BME280;24125;47.482;8.770;2023-02-19T01:36:02;96971.72;;;10.79;63.76
36386;BME280;24125;47.482;8.770;2023-02-19T01:38:35;96977.38;;;10.77;63.71
36386;BME280;24125;47.482;8.770;2023-02-19T01:41:10;96976.28;;;10.78;63.72
36386;BME280;24125;47.482;8.770;2023-02-19T01:43:55;96980.53;;;10.79;63.52
36386;BME280;24125;47.482;8.770;2023-02-19T01:46:30;96978.16;;;10.78;63.38
36386;BME280;24125;47.482;8.770;2023-02-19T01:49:08;96982.72;;;10.77;63.73
36386;BME280;24125;47.482;8.770;2023-02-19T01:51:44;96980.03;;;10.77;63.37
36386;BME280;24125;47.482;8.770;2023-02-19T01:54:20;96966.50;;;10.74;63.63
36386;BME280;24125;47.482;8.770;2023-02-19T01:56:57;96972.63;;;10.74;63.31
36386;BME280;24125;47.482;8.770;2023-02-19T01:59:32;96972.94;;;10.73;63.88
36386;BME280;24125;47.482;8.770;2023-02-19T02:02:05;96972.19;;;10.72;63.77
36386;BME280;24125;47.482;8.770;2023-02-19T02:04:39;96961.78;;;10.71;63.73
36386;BME280;24125;47.482;8.770;2023-02-19T02:07:13;96942.31;;;10.70;63.89
36386;BME280;24125;47.482;8.770;2023-02-19T02:10:00;96933.22;;;10.71;63.96
36386;BME280;24125;47.482;8.770;2023-02-19T02:12:56;96923.78;;;10.74;63.96
36386;BME280;24125;47.482;8.770;2023-02-19T02:15:37;96914.66;;;10.75;64.07
36386;BME280;24125;47.482;8.770;2023-02-19T02:18:21;96920.81;;;10.75;64.01
36386;BME280;24125;47.482;8.770;2023-02-19T02:21:11;96917.03;;;10.76;63.83
36386;BME280;24125;47.482;8.770;2023-02-19T02:24:10;96920.19;;;10.78;63.98
36386;BME280;24125;47.482;8.770;2023-02-19T02:26:56;96922.88;;;10.78;63.88
36386;BME280;24125;47.482;8.770;2023-02-19T02:30:06;96921.59;;;10.76;63.83
36386;BME280;24125;47.482;8.770;2023-02-19T02:32:44;96914.38;;;10.76;63.32
36386;BME280;24125;47.482;8.770;2023-02-19T02:35:26;96909.63;;;10.73;63.80
36386;BME280;24125;47.482;8.770;2023-02-19T02:38:05;96911.50;;;10.73;63.58
36386;BME280;24125;47.482;8.770;2023-02-19T02:40:42;96908.38;;;10.71;63.81
36386;BME280;24125;47.482;8.770;2023-02-19T02:43:15;96906.03;;;10.69;63.85
36386;BME280;24125;47.482;8.770;2023-02-19T02:45:50;96908.38;;;10.71;63.81
36386;BME280;24125;47.482;8.770;2023-02-19T02:48:27;96914.50;;;10.71;63.77
36386;BME280;24125;47.482;8.770;2023-02-19T02:51:07;96919.06;;;10.71;64.01
36386;BME280;24125;47.482;8.770;2023-02-19T02:53:45;96912.16;;;10.70;64.05
36386;BME280;24125;47.482;8.770;2023-02-19T02:56:38;96919.38;;;10.69;63.88
36386;BME280;24125;47.482;8.770;2023-02-19T02:59:14;96915.91;;;10.69;63.77
36386;BME280;24125;47.482;8.770;2023-02-19T03:01:51;96907.09;;;10.68;64.06
36386;BME280;24125;47.482;8.770;2023-02-19T03:04:48;96905.72;;;10.71;64.18
36386;BME280;24125;47.482;8.770;2023-02-19T03:07:44;96918.75;;;10.72;64.64
36386;BME280;24125;47.482;8.770;2023-02-19T03:10:22;96925.53;;;10.78;64.41
36386;BME280;24125;47.482;8.770;2023-02-19T03:12:59;96926.19;;;10.84;64.44
36386;BME280;24125;47.482;8.770;2023-02-19T03:15:53;96901.22;;;10.88;64.60
36386;BME280;24125;47.482;8.770;2023-02-19T03:18:49;96902.34;;;10.96;64.50
36386;BME280;24125;47.482;8.770;2023-02-19T03:21:42;96910.69;;;11.03;64.42
36386;BME280;24125;47.482;8.770;2023-02-19T03:24:21;96911.50;;;11.12;64.32
36386;BME280;24125;47.482;8.770;2023-02-19T03:27:15;96923.81;;;11.22;64.18
36386;BME280;24125;47.482;8.770;2023-02-19T03:29:51;96927.28;;;11.31;64.05
36386;BME280;24125;47.482;8.770;2023-02-19T03:32:29;96924.16;;;11.38;64.27
36386;BME280;24125;47.482;8.770;2023-02-19T03:35:07;96925.25;;;11.45;63.85
36386;BME280;24125;47.482;8.770;2023-02-19T03:37:44;96930.94;;;11.52;63.94
36386;BME280;24125;47.482;8.770;2023-02-19T03:40:20;96911.28;;;11.57;63.79
36386;BME280;24125;47.482;8.770;2023-02-19T03:42:59;96915.06;;;11.64;63.60
36386;BME280;24125;47.482;8.770;2023-02-19T03:45:43;96915.69;;;11.70;63.69
36386;BME280;24125;47.482;8.770;2023-02-19T03:48:23;96925.94;;;11.77;63.83
36386;BME280;24125;47.482;8.770;2023-02-19T03:51:12;96936.81;;;11.80;62.97
36386;BME280;24125;47.482;8.770;2023-02-19T03:53:52;96959.31;;;11.88;63.48
36386;BME280;24125;47.482;8.770;2023-02-19T03:56:34;96968.00;;;11.93;63.61
36386;BME280;24125;47.482;8.770;2023-02-19T03:59:12;96968.94;;;11.97;63.72
36386;BME280;24125;47.482;8.770;2023-02-19T04:01:50;96969.56;;;12.03;63.46
36386;BME280;24125;47.482;8.770;2023-02-19T04:04:28;96955.56;;;12.06;63.48
36386;BME280;24125;47.482;8.770;2023-02-19T04:07:06;96950.03;;;12.11;63.45
36386;BME280;24125;47.482;8.770;2023-02-19T04:09:43;96940.59;;;12.14;62.91
36386;BME280;24125;47.482;8.770;2023-02-19T04:12:18;96936.03;;;12.14;63.57
36386;BME280;24125;47.482;8.770;2023-02-19T04:14:53;96903.28;;;12.17;63.34
36386;BME280;24125;47.482;8.770;2023-02-19T04:17:34;96912.56;;;12.20;62.84
36386;BME280;24125;47.482;8.770;2023-02-19T04:20:09;96917.59;;;12.21;62.64
36386;BME280;24125;47.482;8.770;2023-02-19T04:22:45;96907.34;;;12.23;63.13
36386;BME280;24125;47.482;8.770;2023-02-19T04:25:19;96906.56;;;12.23;62.71
36386;BME280;24125;47.482;8.770;2023-02-19T04:27:52;96904.69;;;12.23;62.54
36386;BME280;24125;47.482;8.770;2023-02-19T04:30:25;96913.50;;;12.24;62.55
36386;BME280;24125;47.482;8.770;2023-02-19T04:32:58;96915.38;;;12.23;62.35
36386;BME280;24125;47.482;8.770;2023-02-19T04:35:31;96911.63;;;12.24;62.90
36386;BME280;24125;47.482;8.770;2023-02-19T04:38:06;96891.78;;;12.25;63.30
36386;BME280;24125;47.482;8.770;2023-02-19T04:40:39;96902.47;;;12.25;63.03
36386;BME280;24125;47.482;8.770;2023-02-19T04:43:12;96886.41;;;12.25;62.39
36386;BME280;24125;47.482;8.770;2023-02-19T04:45:45;96877.28;;;12.26;62.57
36386;BME280;24125;47.482;8.770;2023-02-19T04:48:18;96892.56;;;12.26;62.66
36386;BME280;24125;47.482;8.770;2023-02-19T04:50:51;96923.25;;;12.28;62.91
36386;BME280;24125;47.482;8.770;2023-02-19T04:53:25;96920.25;;;12.30;63.18
36386;BME280;24125;47.482;8.770;2023-02-19T04:56:05;96912.69;;;12.32;63.72
36386;BME280;24125;47.482;8.770;2023-02-19T04:58:39;96925.28;;;12.31;63.44
36386;BME280;24125;47.482;8.770;2023-02-19T05:01:12;96925.91;;;12.28;64.20
36386;BME280;24125;47.482;8.770;2023-02-19T05:03:45;96936.63;;;12.28;64.15
36386;BME280;24125;47.482;8.770;2023-02-19T05:06:18;96943.13;;;12.27;63.53
36386;BME280;24125;47.482;8.770;2023-02-19T05:08:53;96940.44;;;12.27;63.62
36386;BME280;24125;47.482;8.770;2023-02-19T05:11:26;96933.03;;;12.24;63.56
36386;BME280;24125;47.482;8.770;2023-02-19T05:13:59;96922.31;;;12.24;63.64
36386;BME280;24125;47.482;8.770;2023-02-19T05:16:32;96927.19;;;12.22;63.82
36386;BME280;24125;47.482;8.770;2023-02-19T05:19:05;96940.59;;;12.22;63.73
36386;BME280;24125;47.482;8.770;2023-02-19T05:21:38;96938.22;;;12.21;63.40
36386;BME280;24125;47.482;8.770;2023-02-19T05:24:12;96949.72;;;12.21;63.81
36386;BME280;24125;47.482;8.770;2023-02-19T05:26:45;96936.19;;;12.18;63.48
36386;BME280;24125;47.482;8.770;2023-02-19T05:29:18;96940.44;;;12.19;63.73
36386;BME280;24125;47.482;8.770;2023-02-19T05:31:51;96931.63;;;12.18;64.07
36386;BME280;24125;47.482;8.770;2023-02-19T05:34:24;96939.66;;;12.18;64.24
36386;BME280;24125;47.482;8.770;2023-02-19T05:36:57;96937.28;;;12.17;63.70
36386;BME280;24125;47.482;8.770;2023-02-19T05:39:31;96930.84;;;12.18;63.44
36386;BME280;24125;47.482;8.770;2023-02-19T05:42:04;96933.03;;;12.16;64.04
36386;BME280;24125;47.482;8.770;2023-02-19T05:44:37;96935.72;;;12.16;64.54
36386;BME280;24125;47.482;8.770;2023-02-19T05:47:10;96927.69;;;12.16;64.11
36386;BME280;24125;47.482;8.770;2023-02-19T05:49:43;96932.72;;;12.17;63.62
36386;BME280;24125;47.482;8.770;2023-02-19T05:52:16;96941.84;;;12.16;63.70
36386;BME280;24125;47.482;8.770;2023-02-19T05:54:50;96945.63;;;12.15;63.98
36386;BME280;24125;47.482;8.770;2023-02-19T05:57:23;96940.91;;;12.12;63.65
36386;BME280;24125;47.482;8.770;2023-02-19T05:59:56;96934.31;;;12.09;63.76
36386;BME280;24125;47.482;8.770;2023-02-19T06:02:29;96943.44;;;12.08;64.25
36386;BME280;24125;47.482;8.770;2023-02-19T06:05:03;96956.03;;;12.08;64.12
36386;BME280;24125;47.482;8.770;2023-02-19T06:07:37;96965.94;;;12.07;63.91
36386;BME280;24125;47.482;8.770;2023-02-19T06:10:12;96968.31;;;12.09;63.97
36386;BME280;24125;47.482;8.770;2023-02-19T06:12:45;96974.78;;;12.08;63.81
36386;BME280;24125;47.482;8.770;2023-02-19T06:15:18;96991.63;;;12.08;64.11
36386;BME280;24125;47.482;8.770;2023-02-19T06:17:51;96983.59;;;12.08;64.01
36386;BME280;24125;47.482;8.770;2023-02-19T06:20:23;96982.16;;;12.11;64.00
36386;BME280;24125;47.482;8.770;2023-02-19T06:22:56;96987.97;;;12.13;63.85
36386;BME280;24125;47.482;8.770;2023-02-19T06:25:31;96985.78;;;12.15;63.86
36386;BME280;24125;47.482;8.770;2023-02-19T06:28:04;96999.16;;;12.15;63.78
36386;BME280;24125;47.482;8.770;2023-02-19T06:30:37;96990.53;;;12.18;64.14
36386;BME280;24125;47.482;8.770;2023-02-19T06:33:10;96997.44;;;12.19;63.50
36386;BME280;24125;47.482;8.770;2023-02-19T06:35:43;96999.00;;;12.20;63.50
36386;BME280;24125;47.482;8.770;2023-02-19T06:38:15;97007.03;;;12.20;63.73
36386;BME280;24125;47.482;8.770;2023-02-19T06:40:50;97013.66;;;12.23;63.70
36386;BME280;24125;47.482;8.770;2023-02-19T06:43:23;97019.78;;;12.23;63.65
36386;BME280;24125;47.482;8.770;2023-02-19T06:45:56;97020.59;;;12.24;63.80
36386;BME280;24125;47.482;8.770;2023-02-19T06:48:31;97012.25;;;12.25;63.53
36386;BME280;24125;47.482;8.770;2023-02-19T06:51:04;97018.38;;;12.26;63.34
36386;BME280;24125;47.482;8.770;2023-02-19T06:53:37;97031.13;;;12.29;63.74
36386;BME280;24125;47.482;8.770;2023-02-19T06:56:23;97025.94;;;12.32;63.85
36386;BME280;24125;47.482;8.770;2023-02-19T06:58:58;97042.00;;;12.32;63.05
36386;BME280;24125;47.482;8.770;2023-02-19T07:01:33;97050.81;;;12.33;63.15
36386;BME280;24125;47.482;8.770;2023-02-19T07:04:06;97050.53;;;12.34;63.20
36386;BME280;24125;47.482;8.770;2023-02-19T07:06:39;97055.56;;;12.36;63.71
36386;BME280;24125;47.482;8.770;2023-02-19T07:09:12;97049.88;;;12.37;63.16
36386;BME280;24125;47.482;8.770;2023-02-19T07:11:46;97063.44;;;12.41;63.12
36386;BME280;24125;47.482;8.770;2023-02-19T07:14:19;97064.22;;;12.41;63.13
36386;BME280;24125;47.482;8.770;2023-02-19T07:16:52;97062.03;;;12.43;63.06
36386;BME280;24125;47.482;8.770;2023-02-19T07:19:25;97066.72;;;12.46;63.22
36386;BME280;24125;47.482;8.770;2023-02-19T07:21:58;97067.22;;;12.48;63.25
36386;BME280;24125;47.482;8.770;2023-02-19T07:24:31;97081.09;;;12.51;62.98
36386;BME280;24125;47.482;8.770;2023-02-19T07:27:06;97088.50;;;12.54;63.44
36386;BME280;24125;47.482;8.770;2023-02-19T07:29:39;97083.91;;;12.54;63.42
36386;BME280;24125;47.482;8.770;2023-02-19T07:32:11;97086.25;;;12.56;62.94
36386;BME280;24125;47.482;8.770;2023-02-19T07:34:44;97096.34;;;12.59;63.25
36386;BME280;24125;47.482;8.770;2023-02-19T07:37:17;97108.78;;;12.63;63.44
36386;BME280;24125;47.482;8.770;2023-02-19T07:39:50;97120.00;;;12.65;63.34
36386;BME280;24125;47.482;8.770;2023-02-19T07:42:25;97120.16;;;12.69;63.34
36386;BME280;24125;47.482;8.770;2023-02-19T07:44:58;97119.84;;;12.70;62.80
36386;BME280;24125;47.482;8.770;2023-02-19T07:47:31;97120.31;;;12.72;62.83
36386;BME280;24125;47.482;8.770;2023-02-19T07:50:04;97116.22;;;12.75;63.05
36386;BME280;24125;47.482;8.770;2023-02-19T07:52:37;97115.28;;;12.79;62.48
36386;BME280;24125;47.482;8.770;2023-02-19T07:55:10;97136.53;;;12.84;62.71
36386;BME280;24125;47.482;8.770;2023-02-19T07:57:44;97128.97;;;12.87;62.75
36386;BME280;24125;47.482;8.770;2023-02-19T08:00:17;97131.00;;;12.90;62.96
36386;BME280;24125;47.482;8.770;2023-02-19T08:02:50;97134.66;;;12.94;62.37
36386;BME280;24125;47.482;8.770;2023-02-19T08:05:36;97126.78;;;12.97;62.58
36386;BME280;24125;47.482;8.770;2023-02-19T08:08:10;97144.56;;;13.02;62.32
36386;BME280;24125;47.482;8.770;2023-02-19T08:10:43;97135.91;;;13.05;62.56
36386;BME280;24125;47.482;8.770;2023-02-19T08:13:35;97144.88;;;13.09;62.55
36386;BME280;24125;47.482;8.770;2023-02-19T08:16:11;97153.88;;;13.13;62.41
36386;BME280;24125;47.482;8.770;2023-02-19T08:18:57;97151.66;;;13.15;62.05
36386;BME280;24125;47.482;8.770;2023-02-19T08:21:30;97149.16;;;13.18;62.04
36386;BME280;24125;47.482;8.770;2023-02-19T08:24:05;97159.25;;;13.21;62.05
36386;BME280;24125;47.482;8.770;2023-02-19T08:26:38;97162.88;;;13.26;62.63
36386;BME280;24125;47.482;8.770;2023-02-19T08:29:12;97168.38;;;13.29;61.72
36386;BME280;24125;47.482;8.770;2023-02-19T08:31:45;97165.84;;;13.33;62.30
36386;BME280;24125;47.482;8.770;2023-02-19T08:34:18;97172.16;;;13.37;62.40
36386;BME280;24125;47.482;8.770;2023-02-19T08:36:51;97181.13;;;13.41;61.65
36386;BME280;24125;47.482;8.770;2023-02-19T08:39:24;97185.06;;;13.43;62.03
36386;BME280;24125;47.482;8.770;2023-02-19T08:41:57;97185.72;;;13.49;61.49
36386;BME280;24125;47.482;8.770;2023-02-19T08:44:32;97177.81;;;13.52;61.87
36386;BME280;24125;47.482;8.770;2023-02-19T08:47:04;97187.91;;;13.55;61.72
36386;BME280;24125;47.482;8.770;2023-02-19T08:49:38;97191.06;;;13.57;62.01
36386;BME280;24125;47.482;8.770;2023-02-19T08:52:11;97186.94;;;13.60;61.43
36386;BME280;24125;47.482;8.770;2023-02-19T08:54:44;97183.16;;;13.61;61.66
36386;BME280;24125;47.482;8.770;2023-02-19T08:57:17;97185.19;;;13.64;61.17
36386;BME280;24125;47.482;8.770;2023-02-19T08:59:52;97191.81;;;13.67;61.53
36386;BME280;24125;47.482;8.770;2023-02-19T09:02:25;97185.00;;;13.69;61.14
36386;BME280;24125;47.482;8.770;2023-02-19T09:04:58;97180.13;;;13.71;61.80
36386;BME280;24125;47.482;8.770;2023-02-19T09:07:31;97185.97;;;13.73;61.07
36386;BME280;24125;47.482;8.770;2023-02-19T09:10:04;97184.84;;;13.74;61.48
36386;BME280;24125;47.482;8.770;2023-02-19T09:12:37;97188.78;;;13.77;61.41
36386;BME280;24125;47.482;8.770;2023-02-19T09:15:12;97198.09;;;13.79;61.33
36386;BME280;24125;47.482;8.770;2023-02-19T09:17:50;97188.31;;;13.83;61.42
36386;BME280;24125;47.482;8.770;2023-02-19T09:20:23;97193.66;;;13.83;62.08
36386;BME280;24125;47.482;8.770;2023-02-19T09:22:56;97189.53;;;13.86;61.70
36386;BME280;24125;47.482;8.770;2023-02-19T09:25:29;97196.16;;;13.88;61.83
36386;BME280;24125;47.482;8.770;2023-02-19T09:28:03;97202.31;;;13.89;62.04
36386;BME280;24125;47.482;8.770;2023-02-19T09:30:37;97203.13;;;13.89;62.22
36386;BME280;24125;47.482;8.770;2023-02-19T09:33:10;97205.00;;;13.89;62.19
36386;BME280;24125;47.482;8.770;2023-02-19T09:35:43;97197.59;;;13.86;62.70
36386;BME280;24125;47.482;8.770;2023-02-19T09:38:16;97205.66;;;13.86;62.47
36386;BME280;24125;47.482;8.770;2023-02-19T09:40:49;97200.94;;;13.83;62.72
36386;BME280;24125;47.482;8.770;2023-02-19T09:43:25;97214.34;;;13.83;62.59
36386;BME280;24125;47.482;8.770;2023-02-19T09:46:02;97209.78;;;13.83;62.58
36386;BME280;24125;47.482;8.770;2023-02-19T09:48:36;97202.66;;;13.79;62.60
36386;BME280;24125;47.482;8.770;2023-02-19T09:51:09;97214.50;;;13.78;62.47
36386;BME280;24125;47.482;8.770;2023-02-19T09:53:46;97215.63;;;13.77;63.04
36386;BME280;24125;47.482;8.770;2023-02-19T09:56:21;97218.28;;;13.77;63.03
36386;BME280;24125;47.482;8.770;2023-02-19T09:58:57;97222.09;;;13.76;63.22
36386;BME280;24125;47.482;8.770;2023-02-19T10:01:36;97208.66;;;13.76;63.07
36386;BME280;24125;47.482;8.770;2023-02-19T10:04:11;97215.47;;;13.73;63.23
36386;BME280;24125;47.482;8.770;2023-02-19T10:06:44;97212.50;;;13.75;63.43
36386;BME280;24125;47.482;8.770;2023-02-19T10:09:21;97209.94;;;13.78;63.65
36386;BME280;24125;47.482;8.770;2023-02-19T10:11:55;97209.94;;;13.78;63.83
36386;BME280;24125;47.482;8.770;2023-02-19T10:14:36;97199.81;;;13.84;63.98
36386;BME280;24125;47.482;8.770;2023-02-19T10:17:19;97202.31;;;13.89;64.21
36386;BME280;24125;47.482;8.770;2023-02-19T10:19:55;97197.88;;;13.93;64.03
36386;BME280;24125;47.482;8.770;2023-02-19T10:22:29;97205.44;;;14.00;64.31
36386;BME280;24125;47.482;8.770;2023-02-19T10:25:02;97208.41;;;14.07;64.14
36386;BME280;24125;47.482;8.770;2023-02-19T10:27:36;97200.66;;;14.14;64.13
36386;BME280;24125;47.482;8.770;2023-02-19T10:30:17;97215.63;;;14.23;63.83
36386;BME280;24125;47.482;8.770;2023-02-19T10:33:03;97211.47;;;14.34;63.97
36386;BME280;24125;47.482;8.770;2023-02-19T10:35:38;97208.75;;;14.43;63.89
36386;BME280;24125;47.482;8.770;2023-02-19T10:38:26;97211.50;;;14.55;63.63
36386;BME280;24125;47.482;8.770;2023-02-19T10:41:03;97211.28;;;14.69;63.29
36386;BME280;24125;47.482;8.770;2023-02-19T10:43:42;97206.28;;;14.80;63.42
36386;BME280;24125;47.482;8.770;2023-02-19T10:46:24;97216.81;;;14.93;62.82
36386;BME280;24125;47.482;8.770;2023-02-19T10:49:02;97219.56;;;15.05;62.38
36386;BME280;24125;47.482;8.770;2023-02-19T10:51:37;97221.84;;;15.16;62.15
36386;BME280;24125;47.482;8.770;2023-02-19T10:54:15;97218.44;;;15.27;62.08
36386;BME280;24125;47.482;8.770;2023-02-19T10:56:49;97229.91;;;15.36;61.85
36386;BME280;24125;47.482;8.770;2023-02-19T10:59:24;97207.97;;;15.46;61.75
36386;BME280;24125;47.482;8.770;2023-02-19T11:01:59;97209.84;;;15.55;61.36
36386;BME280;24125;47.482;8.770;2023-02-19T11:04:33;97215.13;;;15.63;61.07
36386;BME280;24125;47.482;8.770;2023-02-19T11:07:09;97205.38;;;15.71;61.06
36386;BME280;24125;47.482;8.770;2023-02-19T11:09:44;97212.59;;;15.79;61.23
36386;BME280;24125;47.482;8.770;2023-02-19T11:12:23;97210.59;;;15.88;60.92
36386;BME280;24125;47.482;8.770;2023-02-19T11:14:58;97218.91;;;15.95;60.94
36386;BME280;24125;47.482;8.770;2023-02-19T11:17:34;97213.75;;;16.02;60.72
36386;BME280;24125;47.482;8.770;2023-02-19T11:20:14;97214.56;;;16.15;60.54
36386;BME280;24125;47.482;8.770;2023-02-19T11:22:48;97201.31;;;16.22;60.03
36386;BME280;24125;47.482;8.770;2023-02-19T11:25:22;97205.13;;;16.33;59.76
36386;BME280;24125;47.482;8.770;2023-02-19T11:27:58;97202.41;;;16.45;59.60
36386;BME280;24125;47.482;8.770;2023-02-19T11:30:37;97198.16;;;16.56;59.28
36386;BME280;24125;47.482;8.770;2023-02-19T11:33:32;97200.09;;;16.68;58.31
36386;BME280;24125;47.482;8.770;2023-02-19T11:36:34;97197.25;;;16.77;57.10
36386;BME280;24125;47.482;8.770;2023-02-19T11:39:19;97191.94;;;16.80;56.93
36386;BME280;24125;47.482;8.770;2023-02-19T11:42:17;97201.16;;;16.79;56.57
36386;BME280;24125;47.482;8.770;2023-02-19T11:45:12;97192.53;;;16.74;56.32
36386;BME280;24125;47.482;8.770;2023-02-19T11:48:18;97190.28;;;16.64;56.02
36386;BME280;24125;47.482;8.770;2023-02-19T11:51:04;97193.41;;;16.53;55.78
36386;BME280;24125;47.482;8.770;2023-02-19T11:53:46;97196.56;;;16.43;55.88
36386;BME280;24125;47.482;8.770;2023-02-19T11:56:25;97187.06;;;16.34;55.77
36386;BME280;24125;47.482;8.770;2023-02-19T11:59:08;97184.13;;;16.27;56.46
36386;BME280;24125;47.482;8.770;2023-02-19T12:01:57;97180.09;;;16.20;56.44
36386;BME280;24125;47.482;8.770;2023-02-19T12:08:11;97177.03;;;16.10;56.89
36386;BME280;24125;47.482;8.770;2023-02-19T12:11:02;97177.03;;;16.10;56.91
36386;BME280;24125;47.482;8.770;2023-02-19T12:13:55;97173.69;;;16.13;57.05
36386;BME280;24125;47.482;8.770;2023-02-19T12:16:32;97169.22;;;16.17;56.99
36386;BME280;24125;47.482;8.770;2023-02-19T12:19:34;97161.22;;;16.20;55.73
36386;BME280;24125;47.482;8.770;2023-02-19T12:22:23;97156.75;;;16.25;55.15
36386;BME280;24125;47.482;8.770;2023-02-19T12:25:24;97157.88;;;16.23;54.94
36386;BME280;24125;47.482;8.770;2023-02-19T12:28:28;97156.75;;;16.25;55.57
36386;BME280;24125;47.482;8.770;2023-02-19T12:31:19;97151.34;;;16.25;55.51
36386;BME280;24125;47.482;8.770;2023-02-19T12:34:11;97149.09;;;16.27;55.99
36386;BME280;24125;47.482;8.770;2023-02-19T12:36:57;97145.28;;;16.28;55.41
36386;BME280;24125;47.482;8.770;2023-02-19T12:39:41;97151.13;;;16.30;55.14
36386;BME280;24125;47.482;8.770;2023-02-19T12:42:40;97152.03;;;16.34;55.49
36386;BME280;24125;47.482;8.770;2023-02-19T12:45:19;97159.31;;;16.33;55.25
36386;BME280;24125;47.482;8.770;2023-02-19T12:47:59;97169.41;;;16.36;55.08
36386;BME280;24125;47.482;8.770;2023-02-19T12:50:34;97169.41;;;16.36;54.94
36386;BME280;24125;47.482;8.770;2023-02-19T12:53:27;97173.47;;;16.42;55.22
36386;BME280;24125;47.482;8.770;2023-02-19T12:56:06;97172.69;;;16.42;54.85
36386;BME280;24125;47.482;8.770;2023-02-19T12:58:44;97171.97;;;16.45;54.79
36386;BME280;24125;47.482;8.770;2023-02-19T13:01:22;97171.31;;;16.48;54.82
36386;BME280;24125;47.482;8.770;2023-02-19T13:04:11;97171.44;;;16.51;54.71
36386;BME280;24125;47.482;8.770;2023-02-19T13:06:50;97171.53;;;16.55;54.86
36386;BME280;24125;47.482;8.770;2023-02-19T13:09:29;97181.31;;;16.59;53.98
36386;BME280;24125;47.482;8.770;2023-02-19T13:12:10;97184.44;;;16.62;54.18
36386;BME280;24125;47.482;8.770;2023-02-19T13:14:48;97186.81;;;16.63;53.83
36386;BME280;24125;47.482;8.770;2023-02-19T13:17:28;97182.22;;;16.64;53.84
36386;BME280;24125;47.482;8.770;2023-02-19T13:20:12;97173.78;;;16.65;53.82
36386;BME280;24125;47.482;8.770;2023-02-19T13:22:51;97170.31;;;16.65;54.31
36386;BME280;24125;47.482;8.770;2023-02-19T13:25:59;97179.63;;;16.67;53.65
36386;BME280;24125;47.482;8.770;2023-02-19T13:28:47;97176.59;;;16.69;53.47
36386;BME280;24125;47.482;8.770;2023-02-19T13:31:39;97176.25;;;16.70;53.43
36386;BME280;24125;47.482;8.770;2023-02-19T13:34:27;97179.31;;;16.69;52.93
36386;BME280;24125;47.482;8.770;2023-02-19T13:37:05;97184.91;;;16.64;52.71
36386;BME280;24125;47.482;8.770;2023-02-19T13:39:45;97179.84;;;16.62;52.77
36386;BME280;24125;47.482;8.770;2023-02-19T13:42:25;97181.50;;;16.54;52.30
36386;BME280;24125;47.482;8.770;2023-02-19T13:45:00;97174.69;;;16.45;52.14
36386;BME280;24125;47.482;8.770;2023-02-19T13:47:48;97154.34;;;16.35;51.47
36386;BME280;24125;47.482;8.770;2023-02-19T13:50:24;97145.97;;;16.25;52.72
36386;BME280;24125;47.482;8.770;2023-02-19T13:52:59;97151.34;;;16.12;52.71
36386;BME280;24125;47.482;8.770;2023-02-19T13:55:50;97169.19;;;16.05;52.52
36386;BME280;24125;47.482;8.770;2023-02-19T13:58:54;97176.25;;;15.97;53.04